AXCGGARGarmin  id=247  GPS 72 Software Version 2.50|2140330771
HFDTE011010
HFPLTPilot:UNREGISTERED
HFTZOTimezone:2
HFSITSite:
HPGTYGliderType:
HPGIDGliderID:
HFDTM100DATUM:WGS-1984
HFCIDCOMPETITIONID:
HFCCLCOMPETITIONCLASS:
LXCG     ICON:C:\Program Files\CompeGPS\symbols\IconsPlay\cronos.ico
LXCG     COLOR:000119000
I00
B1420363754007N00104290WA0000000418
B1420423753988N00104307WA0000000408
B1420483753974N00104323WA0000000415
B1420543753965N00104344WA0000000430
B1421003753957N00104350WA0000000428
B1421063753951N00104348WA0000000417
B1421123753971N00104327WA0000000407
B1421183753985N00104300WA0000000413
B1421243753995N00104266WA0000000420
B1421303754000N00104245WA0000000427
B1421363753997N00104234WA0000000432
B1421423754001N00104213WA0000000437
B1421483754006N00104186WA0000000432
B1421543754008N00104159WA0000000437
B1422003754013N00104136WA0000000440
B1422063754007N00104123WA0000000442
B1422123754017N00104100WA0000000441
B1422183754036N00104075WA0000000439
B1422243754054N00104051WA0000000439
B1422303754074N00104026WA0000000440
B1422363754086N00104004WA0000000447
B1422423754084N00103993WA0000000450
B1422483754079N00104017WA0000000451
B1422543754071N00104040WA0000000450
B1423003754064N00104065WA0000000447
B1423063754062N00104099WA0000000439
B1423123754058N00104132WA0000000432
B1423183754052N00104165WA0000000426
B1423243754043N00104199WA0000000425
B1423303754032N00104228WA0000000432
B1423363754018N00104250WA0000000436
B1423423754006N00104267WA0000000445
B1423483754000N00104285WA0000000442
B1423543753996N00104312WA0000000439
B1424003753989N00104333WA0000000438
B1424063753982N00104343WA0000000439
B1424123753972N00104346WA0000000445
B1424183753966N00104333WA0000000446
B1424243753969N00104310WA0000000444
B1424303753980N00104284WA0000000443
B1424363753995N00104261WA0000000443
B1424423754000N00104244WA0000000446
B1424483753995N00104236WA0000000446
B1424543753986N00104236WA0000000451
B1425003753976N00104237WA0000000451
B1425063753968N00104232WA0000000444
B1425123753982N00104210WA0000000436
B1425183754008N00104188WA0000000430
B1425243754024N00104164WA0000000426
B1425303754017N00104163WA0000000421
B1425363754017N00104192WA0000000416
B1425423754012N00104222WA0000000413
B1425483754014N00104254WA0000000416
B1425543754010N00104280WA0000000420
B1426003754003N00104301WA0000000422
B1426063753998N00104325WA0000000428
B1426123753991N00104350WA0000000428
B1426183753985N00104376WA0000000433
B1426243753977N00104398WA0000000431
B1426303753967N00104422WA0000000431
B1426363753959N00104443WA0000000426
B1426423753946N00104465WA0000000432
B1426483753929N00104479WA0000000444
B1426543753913N00104498WA0000000454
B1427003753894N00104502WA0000000477
B1427063753876N00104500WA0000000492
B1427123753861N00104504WA0000000498
B1427183753846N00104524WA0000000501
B1427243753833N00104550WA0000000508
B1427303753826N00104573WA0000000510
B1427363753825N00104603WA0000000512
B1427423753822N00104632WA0000000510
B1427483753823N00104667WA0000000505
B1427543753825N00104704WA0000000500
B1428003753823N00104739WA0000000498
B1428063753813N00104766WA0000000496
B1428123753812N00104802WA0000000495
B1428183753809N00104836WA0000000493
B1428243753799N00104836WA0000000490
B1428303753803N00104813WA0000000483
B1428363753807N00104788WA0000000479
B1428423753812N00104762WA0000000478
B1428483753820N00104738WA0000000479
B1428543753830N00104714WA0000000476
B1429003753833N00104695WA0000000480
B1429063753838N00104673WA0000000479
B1429123753838N00104651WA0000000475
B1429183753844N00104625WA0000000475
B1429243753852N00104599WA0000000473
B1429303753857N00104576WA0000000473
B1429363753862N00104548WA0000000469
B1429423753874N00104516WA0000000469
B1429483753884N00104484WA0000000465
B1429543753894N00104452WA0000000457
B1430003753905N00104422WA0000000458
B1430063753910N00104395WA0000000468
B1430123753893N00104397WA0000000468
B1430183753900N00104432WA0000000464
B1430243753931N00104427WA0000000463
B1430303753936N00104398WA0000000470
B1430363753936N00104376WA0000000475
B1430423753939N00104353WA0000000471
B1430483753949N00104329WA0000000465
B1430543753957N00104303WA0000000459
B1431003753957N00104283WA0000000459
B1431063753954N00104264WA0000000457
B1431123753958N00104241WA0000000457
B1431183753963N00104221WA0000000456
B1431243753979N00104200WA0000000446
B1431303754008N00104190WA0000000438
B1431363754030N00104171WA0000000431
B1431423754050N00104149WA0000000424
B1431483754068N00104128WA0000000419
B1431543754081N00104107WA0000000421
B1432003754079N00104092WA0000000427
B1432063754072N00104084WA0000000432
B1432123754068N00104072WA0000000435
B1432183754079N00104053WA0000000433
B1432243754078N00104036WA0000000436
B1432303754070N00104031WA0000000432
B1432363754075N00104013WA0000000428
B1432423754096N00103996WA0000000427
B1432483754113N00103978WA0000000424
B1432543754128N00103956WA0000000418
B1433003754143N00103933WA0000000415
B1433063754156N00103910WA0000000413
B1433123754150N00103899WA0000000408
B1433183754143N00103930WA0000000404
B1433243754136N00103964WA0000000402
B1433303754127N00103991WA0000000406
B1433363754111N00104010WA0000000409
B1433423754100N00104040WA0000000414
B1433483754093N00104077WA0000000413
B1433543754084N00104106WA0000000420
B1434003754085N00104097WA0000000427
B1434063754083N00104087WA0000000435
B1434123754071N00104103WA0000000430
B1434183754059N00104127WA0000000431
B1434243754045N00104149WA0000000434
B1434303754030N00104171WA0000000446
B1434363754019N00104183WA0000000458
B1434423754004N00104177WA0000000475
B1434483753991N00104171WA0000000487
B1434543753979N00104167WA0000000498
B1435003753966N00104162WA0000000506
B1435063753958N00104150WA0000000517
B1435123753946N00104139WA0000000521
B1435183753938N00104126WA0000000534
B1435243753928N00104116WA0000000543
B1435303753920N00104103WA0000000547
B1435363753909N00104095WA0000000546
B1435423753895N00104118WA0000000544
B1435483753880N00104128WA0000000550
B1435543753863N00104138WA0000000559
B1436003753845N00104143WA0000000565
B1436063753827N00104145WA0000000577
B1436123753810N00104144WA0000000587
B1436183753795N00104135WA0000000601
B1436243753775N00104128WA0000000612
B1436303753764N00104117WA0000000620
B1436363753752N00104145WA0000000622
B1436423753781N00104182WA0000000629
B1436483753807N00104176WA0000000644
B1436543753802N00104161WA0000000654
B1437003753789N00104171WA0000000658
B1437063753789N00104213WA0000000660
B1437123753819N00104254WA0000000667
B1437183753852N00104253WA0000000677
B1437243753850N00104243WA0000000686
B1437303753844N00104276WA0000000691
B1437363753865N00104321WA0000000703
B1437423753902N00104336WA0000000711
B1437483753917N00104312WA0000000718
B1437543753912N00104292WA0000000732
B1438003753903N00104282WA0000000735
B1438063753890N00104279WA0000000737
B1438123753883N00104271WA0000000755
B1438183753874N00104259WA0000000761
B1438243753864N00104259WA0000000764
B1438303753854N00104265WA0000000761
B1438363753841N00104279WA0000000757
B1438423753829N00104287WA0000000759
B1438483753813N00104292WA0000000756
B1438543753795N00104310WA0000000749
B1439003753780N00104330WA0000000741
B1439063753764N00104348WA0000000733
B1439123753749N00104371WA0000000720
B1439183753736N00104400WA0000000707
B1439243753724N00104429WA0000000694
B1439303753712N00104458WA0000000682
B1439363753700N00104483WA0000000673
B1439423753689N00104504WA0000000663
B1439483753675N00104527WA0000000655
B1439543753659N00104546WA0000000649
B1440003753641N00104563WA0000000646
B1440063753624N00104573WA0000000651
B1440123753609N00104577WA0000000646
B1440183753594N00104590WA0000000637
B1440243753579N00104606WA0000000627
B1440303753565N00104632WA0000000613
B1440363753570N00104670WA0000000597
B1440423753609N00104684WA0000000584
B1440483753648N00104680WA0000000573
B1440543753682N00104662WA0000000567
B1441003753717N00104645WA0000000567
B1441063753746N00104627WA0000000564
B1441123753772N00104607WA0000000563
B1441183753794N00104585WA0000000558
B1441243753815N00104562WA0000000552
B1441303753833N00104538WA0000000546
B1441363753844N00104508WA0000000540
B1441423753856N00104481WA0000000534
B1441483753876N00104457WA0000000527
B1441543753892N00104427WA0000000516
B1442003753906N00104397WA0000000506
B1442063753922N00104367WA0000000497
B1442123753939N00104339WA0000000486
B1442183753949N00104309WA0000000477
B1442243753955N00104282WA0000000481
B1442303753966N00104255WA0000000493
B1442363753980N00104229WA0000000508
B1442423753986N00104208WA0000000524
B1442483753989N00104184WA0000000537
B1442543753991N00104167WA0000000536
B1443003753985N00104154WA0000000517
B1443063753968N00104165WA0000000503
B1443123753954N00104161WA0000000500
B1443183753952N00104142WA0000000500
B1443243753959N00104116WA0000000487
B1443303753986N00104099WA0000000474
B1443363754017N00104088WA0000000463
B1443423754046N00104070WA0000000455
B1443483754066N00104047WA0000000453
B1443543754084N00104021WA0000000452
B1444003754101N00103993WA0000000456
B1444063754106N00103975WA0000000460
B1444123754103N00103957WA0000000463
B1444183754093N00103966WA0000000467
B1444243754077N00103980WA0000000470
B1444303754070N00103970WA0000000469
B1444363754057N00103989WA0000000461
B1444423754053N00104024WA0000000452
B1444483754044N00104057WA0000000448
B1444543754035N00104092WA0000000445
B1445003754025N00104119WA0000000440
B1445063754021N00104154WA0000000435
B1445123754018N00104192WA0000000434
B1445183754014N00104229WA0000000433
B1445243754013N00104269WA0000000430
B1445303754007N00104304WA0000000431
B1445363753998N00104340WA0000000430
B1445423753987N00104373WA0000000432
B1445483753974N00104400WA0000000434
B1445543753959N00104433WA0000000436
B1446003753944N00104464WA0000000440
B1446063753927N00104498WA0000000449
B1446123753908N00104524WA0000000462
B1446183753890N00104519WA0000000479
B1446243753879N00104508WA0000000491
B1446303753871N00104490WA0000000497
B1446363753854N00104494WA0000000506
B1446423753849N00104474WA0000000514
B1446483753840N00104454WA0000000524
B1446543753837N00104434WA0000000531
B1447003753832N00104414WA0000000535
B1447063753826N00104402WA0000000529
B1447123753822N00104432WA0000000524
B1447183753822N00104469WA0000000519
B1447243753818N00104499WA0000000514
B1447303753806N00104525WA0000000509
B1447363753797N00104550WA0000000500
B1447423753785N00104563WA0000000487
B1447483753803N00104535WA0000000484
B1447543753822N00104507WA0000000479
B1448003753848N00104482WA0000000479
B1448063753867N00104450WA0000000478
B1448123753882N00104422WA0000000472
B1448183753900N00104394WA0000000474
B1448243753904N00104373WA0000000473
B1448303753928N00104350WA0000000474
B1448363753941N00104330WA0000000477
B1448423753940N00104317WA0000000481
B1448483753934N00104306WA0000000481
B1448543753934N00104290WA0000000483
B1449003753933N00104279WA0000000484
B1449063753926N00104268WA0000000487
B1449123753920N00104256WA0000000489
B1449183753916N00104243WA0000000491
B1449243753910N00104230WA0000000497
B1449303753903N00104220WA0000000503
B1449363753897N00104206WA0000000513
B1449423753895N00104195WA0000000513
B1449483753889N00104219WA0000000513
B1449543753914N00104252WA0000000507
B1450003753944N00104241WA0000000510
B1450063753942N00104230WA0000000514
B1450123753928N00104240WA0000000516
B1450183753917N00104236WA0000000520
B1450243753906N00104231WA0000000521
B1450303753897N00104221WA0000000524
B1450363753889N00104212WA0000000530
B1450423753882N00104201WA0000000535
B1450483753879N00104184WA0000000539
B1450543753875N00104169WA0000000538
B1451003753866N00104169WA0000000535
B1451063753875N00104204WA0000000533
B1451123753911N00104212WA0000000531
B1451183753921N00104193WA0000000536
B1451243753914N00104179WA0000000532
B1451303753906N00104165WA0000000529
B1451363753900N00104151WA0000000535
B1451423753895N00104134WA0000000538
B1451483753887N00104121WA0000000528
B1451543753881N00104138WA0000000524
B1452003753898N00104168WA0000000521
B1452063753933N00104161WA0000000519
B1452123753951N00104132WA0000000508
B1452183753940N00104129WA0000000500
B1452243753925N00104145WA0000000494
B1452303753919N00104170WA0000000494
B1452363753921N00104201WA0000000492
B1452423753923N00104230WA0000000492
B1452483753918N00104250WA0000000492
B1452543753911N00104279WA0000000500
B1453003753903N00104305WA0000000504
B1453063753899N00104329WA0000000494
B1453123753913N00104369WA0000000482
B1453183753921N00104408WA0000000474
B1453243753917N00104439WA0000000473
B1453303753911N00104463WA0000000475
B1453363753903N00104464WA0000000482
B1453423753896N00104478WA0000000475
B1453483753892N00104506WA0000000474
B1453543753889N00104534WA0000000472
B1454003753885N00104569WA0000000472
B1454063753874N00104592WA0000000478
B1454123753870N00104619WA0000000482
B1454183753865N00104644WA0000000485
B1454243753861N00104669WA0000000488
B1454303753856N00104693WA0000000489
B1454363753850N00104719WA0000000490
B1454423753834N00104732WA0000000498
B1454483753820N00104725WA0000000506
B1454543753810N00104718WA0000000517
B1455003753801N00104709WA0000000521
B1455063753792N00104706WA0000000523
B1455123753781N00104709WA0000000522
B1455183753767N00104713WA0000000520
B1455243753755N00104729WA0000000523
B1455303753743N00104736WA0000000523
B1455363753732N00104736WA0000000526
B1455423753722N00104740WA0000000524
B1455483753714N00104765WA0000000520
B1455543753714N00104799WA0000000516
B1456003753709N00104826WA0000000511
B1456063753706N00104854WA0000000508
B1456123753694N00104875WA0000000517
B1456183753681N00104877WA0000000521
B1456243753672N00104876WA0000000514
B1456303753685N00104853WA0000000510
B1456363753705N00104832WA0000000505
B1456423753725N00104813WA0000000505
B1456483753741N00104791WA0000000500
B1456543753760N00104769WA0000000500
B1457003753773N00104743WA0000000497
B1457063753789N00104719WA0000000496
B1457123753810N00104694WA0000000495
B1457183753829N00104671WA0000000491
B1457243753845N00104645WA0000000489
B1457303753861N00104617WA0000000488
B1457363753873N00104587WA0000000488
B1457423753883N00104558WA0000000490
B1457483753879N00104542WA0000000494
B1457543753869N00104532WA0000000500
B1458003753857N00104528WA0000000505
B1458063753843N00104532WA0000000504
B1458123753830N00104529WA0000000501
B1458183753817N00104513WA0000000498
B1458243753807N00104499WA0000000496
B1458303753797N00104482WA0000000486
B1458363753792N00104464WA0000000475
B1458423753797N00104441WA0000000466
B1458483753830N00104431WA0000000459
B1458543753867N00104423WA0000000448
B1459003753902N00104405WA0000000445
B1459063753930N00104377WA0000000445
B1459123753953N00104349WA0000000442
B1459183753976N00104320WA0000000435
B1459243753997N00104286WA0000000437
B1459303754004N00104256WA0000000444
B1459363754000N00104232WA0000000450
B1459423754001N00104207WA0000000447
B1459483754004N00104184WA0000000449
B1459543754006N00104166WA0000000452
B1500003753997N00104170WA0000000452
B1500063754000N00104200WA0000000453
B1500123753994N00104222WA0000000455
B1500183753981N00104238WA0000000457
B1500243753973N00104258WA0000000466
B1500303753965N00104270WA0000000472
B1500363753958N00104282WA0000000473
B1500423753958N00104302WA0000000464
B1500483753958N00104330WA0000000462
B1500543753956N00104357WA0000000465
B1501003753954N00104382WA0000000468
B1501063753947N00104406WA0000000471
B1501123753943N00104430WA0000000474
B1501183753936N00104443WA0000000477
B1501243753928N00104462WA0000000475
B1501303753926N00104489WA0000000474
B1501363753921N00104510WA0000000475
B1501423753916N00104531WA0000000476
B1501483753907N00104547WA0000000477
B1501543753898N00104562WA0000000480
B1502003753888N00104576WA0000000481
B1502063753882N00104598WA0000000480
B1502123753876N00104621WA0000000479
B1502183753869N00104643WA0000000483
B1502243753861N00104662WA0000000485
B1502303753855N00104684WA0000000483
B1502363753852N00104710WA0000000485
B1502423753847N00104738WA0000000485
B1502483753837N00104761WA0000000482
B1502543753825N00104762WA0000000487
B1503003753811N00104763WA0000000489
B1503063753806N00104748WA0000000490
B1503123753825N00104724WA0000000491
B1503183753842N00104696WA0000000489
B1503243753840N00104670WA0000000489
B1503303753834N00104641WA0000000494
B1503363753826N00104627WA0000000492
B1503423753823N00104652WA0000000489
B1503483753816N00104681WA0000000496
B1503543753809N00104704WA0000000503
B1504003753804N00104730WA0000000507
B1504063753798N00104752WA0000000512
B1504123753788N00104763WA0000000518
B1504183753777N00104772WA0000000526
B1504243753771N00104792WA0000000527
B1504303753768N00104818WA0000000526
B1504363753758N00104840WA0000000521
B1504423753750N00104862WA0000000523
B1504483753743N00104878WA0000000522
B1504543753738N00104895WA0000000520
B1505003753733N00104911WA0000000524
B1505063753726N00104926WA0000000526
B1505123753719N00104939WA0000000527
B1505183753711N00104946WA0000000528
B1505243753701N00104963WA0000000526
B1505303753687N00104975WA0000000534
B1505363753674N00104987WA0000000539
B1505423753663N00104997WA0000000547
B1505483753654N00105001WA0000000551
B1505543753645N00105003WA0000000557
B1506003753633N00105003WA0000000572
B1506063753621N00104995WA0000000587
B1506123753616N00104977WA0000000605
B1506183753605N00104972WA0000000616
B1506243753587N00104968WA0000000622
B1506303753576N00104958WA0000000634
B1506363753569N00104943WA0000000630
B1506423753576N00104972WA0000000627
B1506483753613N00104970WA0000000624
B1506543753612N00104951WA0000000618
B1507003753599N00104951WA0000000614
B1507063753585N00104959WA0000000610
B1507123753574N00104960WA0000000604
B1507183753567N00104955WA0000000594
B1507243753561N00104944WA0000000587
B1507303753551N00104936WA0000000579
B1507363753538N00104937WA0000000573
B1507423753527N00104934WA0000000566
B1507483753514N00104937WA0000000560
B1507543753501N00104944WA0000000553
B1508003753487N00104951WA0000000548
B1508063753472N00104957WA0000000540
B1508123753456N00104971WA0000000535
B1508183753442N00104979WA0000000529
B1508243753452N00104960WA0000000524
B1508303753480N00104947WA0000000517
B1508363753513N00104932WA0000000510
B1508423753544N00104918WA0000000499
B1508483753576N00104905WA0000000490
B1508543753606N00104890WA0000000491
B1509003753627N00104872WA0000000485
B1509063753655N00104855WA0000000484
B1509123753684N00104839WA0000000483
B1509183753710N00104820WA0000000486
B1509243753731N00104796WA0000000488
B1509303753749N00104772WA0000000485
B1509363753765N00104744WA0000000488
B1509423753786N00104719WA0000000481
B1509483753807N00104690WA0000000483
B1509543753810N00104662WA0000000496
B1510003753795N00104641WA0000000513
B1510063753788N00104626WA0000000518
B1510123753783N00104606WA0000000517
B1510183753785N00104583WA0000000513
B1510243753797N00104562WA0000000510
B1510303753811N00104538WA0000000508
B1510363753817N00104520WA0000000509
B1510423753810N00104542WA0000000513
B1510483753826N00104586WA0000000508
B1510543753818N00104602WA0000000499
B1511003753831N00104574WA0000000490
B1511063753844N00104548WA0000000503
B1511123753842N00104526WA0000000508
B1511183753842N00104505WA0000000515
B1511243753846N00104484WA0000000519
B1511303753848N00104461WA0000000515
B1511363753843N00104446WA0000000511
B1511423753843N00104427WA0000000511
B1511483753842N00104405WA0000000504
B1511543753840N00104383WA0000000496
B1512003753848N00104358WA0000000488
B1512063753863N00104330WA0000000480
B1512123753876N00104301WA0000000473
B1512183753890N00104274WA0000000465
B1512243753904N00104243WA0000000459
B1512303753917N00104215WA0000000452
B1512363753926N00104188WA0000000448
B1512423753953N00104165WA0000000444
B1512483753987N00104150WA0000000441
B1512543754017N00104130WA0000000438
B1513003754046N00104105WA0000000436
B1513063754064N00104076WA0000000436
B1513123754077N00104048WA0000000440
B1513183754070N00104034WA0000000446
B1513243754059N00104030WA0000000447
B1513303754052N00104044WA0000000445
B1513363754047N00104069WA0000000439
B1513423754043N00104095WA0000000435
B1513483754034N00104113WA0000000433
B1513543754030N00104138WA0000000434
B1514003754027N00104166WA0000000430
B1514063754028N00104194WA0000000428
B1514123754023N00104222WA0000000427
B1514183754016N00104249WA0000000428
B1514243754012N00104278WA0000000422
B1514303754008N00104304WA0000000420
B1514363753994N00104324WA0000000427
B1514423753980N00104349WA0000000428
B1514483753972N00104370WA0000000431
B1514543753968N00104391WA0000000426
B1515003753965N00104417WA0000000422
B1515063753959N00104433WA0000000425
B1515123753949N00104448WA0000000427
B1515183753941N00104465WA0000000431
B1515243753931N00104484WA0000000439
B1515303753926N00104502WA0000000436
B1515363753924N00104485WA0000000431
B1515423753937N00104456WA0000000432
B1515483753949N00104427WA0000000438
B1515543753953N00104408WA0000000438
B1516003753955N00104389WA0000000442
B1516063753961N00104368WA0000000443
B1516123753971N00104341WA0000000451
B1516183753978N00104311WA0000000447
B1516243753985N00104283WA0000000438
B1516303753993N00104254WA0000000433
B1516363753994N00104229WA0000000428
B1516423754002N00104200WA0000000426
B1516483754027N00104173WA0000000417
B1516543754053N00104150WA0000000416
B1517003754073N00104125WA0000000419
B1517063754079N00104104WA0000000423
B1517123754085N00104078WA0000000426
B1517183754095N00104048WA0000000425
B1517243754105N00104020WA0000000429
B1517303754111N00103993WA0000000436
B1517363754123N00103969WA0000000444
B1517423754133N00103940WA0000000451
B1517483754140N00103913WA0000000451
B1517543754154N00103884WA0000000446
B1518003754148N00103875WA0000000444
B1518063754143N00103898WA0000000443
B1518123754140N00103922WA0000000442
B1518183754135N00103946WA0000000438
B1518243754129N00103968WA0000000436
B1518303754123N00103987WA0000000438
B1518363754118N00104003WA0000000440
B1518423754113N00104016WA0000000442
B1518483754108N00104024WA0000000441
B1518543754101N00104040WA0000000433
B1519003754094N00104065WA0000000426
B1519063754087N00104094WA0000000423
B1519123754080N00104123WA0000000417
B1519183754071N00104151WA0000000418
B1519243754061N00104172WA0000000415
B1519303754052N00104200WA0000000412
B1519363754042N00104223WA0000000410
B1519423754033N00104249WA0000000405
B1519483754019N00104278WA0000000415
B1519543754009N00104302WA0000000425
B1520003754001N00104327WA0000000434
B1520063753993N00104334WA0000000439
B1520123753985N00104339WA0000000443
B1520183753976N00104353WA0000000457
B1520243753971N00104346WA0000000463
B1520303753965N00104360WA0000000464
B1520363753959N00104380WA0000000459
B1520423753954N00104407WA0000000455
B1520483753945N00104432WA0000000457
B1520543753938N00104454WA0000000456
B1521003753931N00104477WA0000000455
B1521063753926N00104503WA0000000455
B1521123753919N00104527WA0000000459
B1521183753910N00104545WA0000000463
B1521243753904N00104570WA0000000463
B1521303753891N00104584WA0000000475
B1521363753878N00104583WA0000000482
B1521423753867N00104574WA0000000490
B1521483753856N00104586WA0000000488
B1521543753847N00104616WA0000000492
B1522003753835N00104626WA0000000492
B1522063753831N00104663WA0000000496
B1522123753821N00104684WA0000000506
B1522183753806N00104684WA0000000519
B1522243753792N00104682WA0000000522
B1522303753778N00104684WA0000000525
B1522363753764N00104694WA0000000527
B1522423753754N00104712WA0000000531
B1522483753743N00104723WA0000000535
B1522543753730N00104730WA0000000538
B1523003753716N00104733WA0000000546
B1523063753703N00104735WA0000000553
B1523123753693N00104729WA0000000551
B1523183753689N00104753WA0000000552
B1523243753717N00104778WA0000000550
B1523303753750N00104769WA0000000558
B1523363753751N00104748WA0000000564
B1523423753746N00104769WA0000000566
B1523483753777N00104795WA0000000566
B1523543753795N00104778WA0000000572
B1524003753784N00104793WA0000000578
B1524063753776N00104808WA0000000579
B1524123753770N00104830WA0000000573
B1524183753759N00104853WA0000000567
B1524243753745N00104872WA0000000562
B1524303753735N00104901WA0000000562
B1524363753722N00104912WA0000000561
B1524423753709N00104917WA0000000552
B1524483753715N00104890WA0000000553
B1524543753733N00104863WA0000000554
B1525003753761N00104840WA0000000550
B1525063753781N00104816WA0000000545
B1525123753798N00104792WA0000000544
B1525183753816N00104768WA0000000547
B1525243753826N00104745WA0000000544
B1525303753841N00104717WA0000000542
B1525363753852N00104689WA0000000540
B1525423753868N00104659WA0000000536
B1525483753881N00104631WA0000000532
B1525543753897N00104597WA0000000531
B1526003753910N00104569WA0000000530
B1526063753919N00104538WA0000000527
B1526123753934N00104506WA0000000521
B1526183753947N00104473WA0000000516
B1526243753953N00104447WA0000000516
B1526303753941N00104447WA0000000515
B1526363753931N00104464WA0000000515
B1526423753918N00104486WA0000000516
B1526483753907N00104510WA0000000522
B1526543753902N00104532WA0000000525
B1527003753888N00104541WA0000000527
B1527063753876N00104540WA0000000527
B1527123753871N00104519WA0000000525
B1527183753872N00104491WA0000000532
B1527243753877N00104463WA0000000531
B1527303753884N00104430WA0000000533
B1527363753894N00104398WA0000000524
B1527423753916N00104364WA0000000514
B1527483753938N00104331WA0000000513
B1527543753952N00104297WA0000000510
B1528003753959N00104272WA0000000512
B1528063753949N00104270WA0000000510
B1528123753958N00104303WA0000000513
B1528183753958N00104331WA0000000515
B1528243753949N00104350WA0000000513
B1528303753939N00104361WA0000000515
B1528363753930N00104349WA0000000522
B1528423753919N00104337WA0000000531
B1528483753908N00104327WA0000000540
B1528543753903N00104312WA0000000546
B1529003753894N00104335WA0000000549
B1529063753884N00104337WA0000000553
B1529123753885N00104318WA0000000562
B1529183753887N00104298WA0000000570
B1529243753887N00104277WA0000000571
B1529303753877N00104280WA0000000579
B1529363753873N00104310WA0000000582
B1529423753864N00104311WA0000000585
B1529483753855N00104305WA0000000587
B1529543753851N00104292WA0000000587
B1530003753846N00104280WA0000000587
B1530063753838N00104272WA0000000590
B1530123753832N00104261WA0000000590
B1530183753825N00104247WA0000000589
B1530243753822N00104237WA0000000591
B1530303753820N00104228WA0000000592
B1530363753824N00104255WA0000000591
B1530423753861N00104274WA0000000595
B1530483753892N00104256WA0000000598
B1530543753890N00104247WA0000000598
B1531003753912N00104277WA0000000598
B1531063753946N00104264WA0000000600
B1531123753956N00104239WA0000000600
B1531183753961N00104218WA0000000602
B1531243753958N00104202WA0000000600
B1531303753959N00104183WA0000000599
B1531363753960N00104164WA0000000597
B1531423753967N00104142WA0000000592
B1531483753979N00104114WA0000000591
B1531543753992N00104085WA0000000591
B1532003753999N00104060WA0000000588
B1532063753991N00104073WA0000000585
B1532123754020N00104101WA0000000582
B1532183754050N00104083WA0000000581
B1532243754063N00104053WA0000000580
B1532303754067N00104025WA0000000577
B1532363754063N00104004WA0000000575
B1532423754060N00103984WA0000000570
B1532483754057N00103966WA0000000562
B1532543754053N00103948WA0000000554
B1533003754050N00103925WA0000000547
B1533063754048N00103897WA0000000541
B1533123754049N00103869WA0000000537
B1533183754048N00103843WA0000000528
B1533243754044N00103819WA0000000516
B1533303754044N00103795WA0000000504
B1533363754071N00103779WA0000000486
B1533423754094N00103816WA0000000474
B1533483754112N00103852WA0000000463
B1533543754126N00103884WA0000000459
B1534003754123N00103908WA0000000462
B1534063754115N00103930WA0000000457
B1534123754111N00103958WA0000000450
B1534183754112N00103995WA0000000449
B1534243754108N00104030WA0000000448
B1534303754100N00104059WA0000000447
B1534363754090N00104091WA0000000447
B1534423754080N00104120WA0000000452
B1534483754067N00104138WA0000000458
B1534543754055N00104160WA0000000465
B1535003754041N00104167WA0000000465
B1535063754034N00104153WA0000000472
B1535123754025N00104139WA0000000480
B1535183754017N00104131WA0000000485
B1535243754004N00104134WA0000000488
B1535303753995N00104144WA0000000493
B1535363753986N00104148WA0000000495
B1535423753978N00104139WA0000000496
B1535483753990N00104111WA0000000495
B1535543754019N00104084WA0000000496
B1536003754046N00104057WA0000000497
B1536063754068N00104029WA0000000496
B1536123754085N00103999WA0000000496
B1536183754104N00103971WA0000000500
B1536243754117N00103944WA0000000504
B1536303754128N00103918WA0000000505
B1536363754142N00103889WA0000000504
B1536423754156N00103862WA0000000500
B1536483754159N00103841WA0000000498
B1536543754147N00103846WA0000000493
B1537003754136N00103862WA0000000488
B1537063754130N00103879WA0000000484
B1537123754121N00103885WA0000000478
B1537183754113N00103897WA0000000472
B1537243754104N00103912WA0000000467
B1537303754092N00103925WA0000000466
B1537363754085N00103948WA0000000467
B1537423754074N00103969WA0000000468
B1537483754064N00103974WA0000000462
B1537543754067N00103949WA0000000455
B1538003754089N00103919WA0000000451
B1538063754111N00103887WA0000000455
B1538123754119N00103859WA0000000458
B1538183754108N00103867WA0000000452
B1538243754105N00103897WA0000000451
B1538303754095N00103919WA0000000453
B1538363754085N00103948WA0000000462
B1538423754074N00103969WA0000000468
B1538483754061N00103973WA0000000474
B1538543754047N00103971WA0000000480
B1539003754039N00103978WA0000000475
B1539063754039N00104002WA0000000461
B1539123754054N00104038WA0000000452
B1539183754056N00104075WA0000000450
B1539243754043N00104099WA0000000455
B1539303754028N00104121WA0000000456
B1539363754021N00104153WA0000000453
B1539423754011N00104185WA0000000455
B1539483754006N00104216WA0000000457
B1539543754003N00104251WA0000000458
B1540003753992N00104277WA0000000459
B1540063753981N00104292WA0000000458
B1540123753973N00104310WA0000000460
B1540183753964N00104313WA0000000465
B1540243753952N00104314WA0000000472
B1540303753940N00104326WA0000000475
B1540363753929N00104330WA0000000476
B1540423753920N00104328WA0000000481
B1540483753909N00104327WA0000000482
B1540543753899N00104325WA0000000480
B1541003753896N00104348WA0000000477
B1541063753895N00104381WA0000000475
B1541123753894N00104409WA0000000470
B1541183753894N00104440WA0000000466
B1541243753889N00104471WA0000000464
B1541303753890N00104505WA0000000467
B1541363753891N00104538WA0000000469
B1541423753881N00104566WA0000000479
B1541483753867N00104578WA0000000489
B1541543753855N00104590WA0000000488
B1542003753849N00104617WA0000000485
B1542063753847N00104647WA0000000485
B1542123753838N00104666WA0000000489
B1542183753826N00104686WA0000000493
B1542243753821N00104718WA0000000495
B1542303753820N00104752WA0000000495
B1542363753813N00104781WA0000000493
B1542423753803N00104809WA0000000494
B1542483753793N00104834WA0000000497
B1542543753782N00104850WA0000000500
B1543003753771N00104857WA0000000503
B1543063753761N00104876WA0000000510
B1543123753751N00104889WA0000000515
B1543183753740N00104896WA0000000521
B1543243753732N00104900WA0000000525
B1543303753723N00104906WA0000000530
B1543363753716N00104900WA0000000529
B1543423753703N00104909WA0000000530
B1543483753692N00104913WA0000000528
B1543543753678N00104924WA0000000527
B1544003753665N00104942WA0000000527
B1544063753652N00104955WA0000000529
B1544123753643N00104978WA0000000536
B1544183753630N00104994WA0000000543
B1544243753618N00105018WA0000000552
B1544303753608N00105046WA0000000551
B1544363753607N00105078WA0000000545
B1544423753604N00105107WA0000000534
B1544483753600N00105088WA0000000526
B1544543753611N00105058WA0000000525
B1545003753626N00105029WA0000000525
B1545063753634N00105005WA0000000525
B1545123753638N00104977WA0000000523
B1545183753636N00104955WA0000000523
B1545243753636N00104940WA0000000525
B1545303753638N00104920WA0000000534
B1545363753643N00104898WA0000000543
B1545423753649N00104875WA0000000549
B1545483753650N00104851WA0000000552
B1545543753643N00104842WA0000000555
B1546003753636N00104838WA0000000562
B1546063753630N00104827WA0000000555
B1546123753622N00104816WA0000000549
B1546183753613N00104810WA0000000545
B1546243753611N00104788WA0000000537
B1546303753611N00104761WA0000000529
B1546363753610N00104737WA0000000518
B1546423753634N00104712WA0000000512
B1546483753668N00104697WA0000000504
B1546543753705N00104689WA0000000498
B1547003753743N00104680WA0000000494
B1547063753775N00104660WA0000000494
B1547123753797N00104632WA0000000496
B1547183753809N00104603WA0000000500
B1547243753823N00104575WA0000000503
B1547303753840N00104547WA0000000505
B1547363753852N00104520WA0000000518
B1547423753860N00104493WA0000000523
B1547483753873N00104464WA0000000528
B1547543753879N00104435WA0000000532
B1548003753880N00104413WA0000000527
B1548063753872N00104400WA0000000523
B1548123753863N00104391WA0000000518
B1548183753853N00104382WA0000000512
B1548243753847N00104399WA0000000504
B1548303753878N00104428WA0000000502
B1548363753905N00104409WA0000000500
B1548423753907N00104387WA0000000495
B1548483753906N00104369WA0000000491
B1548543753899N00104358WA0000000491
B1549003753889N00104352WA0000000488
B1549063753879N00104357WA0000000488
B1549123753868N00104373WA0000000485
B1549183753858N00104394WA0000000480
B1549213753855N00104409WA0000000477
B1550483753765N00104787WA0000000516
B1550543753764N00104831WA0000000518
B1551003753761N00104860WA0000000517
B1551063753750N00104884WA0000000512
B1551123753739N00104914WA0000000508
B1551183753731N00104948WA0000000501
B1551243753719N00104982WA0000000497
B1551303753704N00105001WA0000000498
B1551363753689N00105003WA0000000499
B1551423753678N00104995WA0000000499
B1551483753674N00104978WA0000000498
B1551543753669N00104961WA0000000494
B1552003753663N00104944WA0000000488
B1552063753664N00104921WA0000000483
B1552123753671N00104898WA0000000478
B1552183753688N00104877WA0000000475
B1552243753701N00104855WA0000000474
B1552303753725N00104839WA0000000466
B1552363753754N00104820WA0000000473
B1552423753766N00104799WA0000000486
B1552483753775N00104780WA0000000487
B1552543753792N00104759WA0000000489
B1553003753813N00104738WA0000000493
B1553063753829N00104713WA0000000498
B1553123753842N00104688WA0000000506
B1553183753843N00104674WA0000000503
B1553223753835N00104676WA0000000500
B1554483753677N00104855WA0000000501
B1554543753676N00104837WA0000000484
B1555003753671N00104826WA0000000488
B1555063753667N00104811WA0000000484
B1555123753666N00104796WA0000000483
B1555183753670N00104777WA0000000475
B1555243753690N00104757WA0000000475
B1555303753710N00104736WA0000000472
B1555363753729N00104712WA0000000466
B1555423753750N00104686WA0000000468
B1555483753752N00104669WA0000000468
B1555543753753N00104701WA0000000466
B1556003753748N00104725WA0000000460
B1556063753757N00104704WA0000000459
B1556123753767N00104679WA0000000459
B1556183753782N00104653WA0000000460
B1556223753793N00104634WA0000000457
B1557123753813N00104453WA0000000465
B1557183753816N00104435WA0000000440
B1557243753826N00104409WA0000000435
B1557303753852N00104385WA0000000427
B1557363753890N00104370WA0000000418
B1557423753926N00104354WA0000000410
B1557483753958N00104334WA0000000408
B1557543753981N00104307WA0000000412
B1558003754003N00104281WA0000000420
B1558063754009N00104255WA0000000424
B1558123754007N00104234WA0000000426
B1558183753998N00104216WA0000000430
B1558243753990N00104206WA0000000436
B1558303753982N00104193WA0000000440
B1558363753974N00104184WA0000000442
B1558423753968N00104170WA0000000438
B1558483753969N00104197WA0000000431
B1558513753973N00104215WA0000000426
B1559363753989N00104268WA0000000438
B1559413753992N00104244WA0000000426
B1559473753993N00104222WA0000000429
B1559533753995N00104198WA0000000424
B1559593754026N00104182WA0000000425
B1600053754050N00104157WA0000000419
B1600113754069N00104126WA0000000417
B1600173754085N00104095WA0000000419
B1600233754092N00104063WA0000000428
B1600263754094N00104051WA0000000428
B1600423754114N00103980WA0000000459
B1600483754126N00103953WA0000000450
B1600543754137N00103925WA0000000460
B1601003754150N00103895WA0000000461
B1601063754157N00103872WA0000000459
B1601123754164N00103848WA0000000459
B1601183754174N00103821WA0000000457
B1601243754187N00103793WA0000000451
B1601303754201N00103765WA0000000444
B1601363754213N00103736WA0000000440
B1601383754216N00103727WA0000000439
B1603003754143N00103899WA0000000391
B1603063754136N00103920WA0000000410
B1603123754125N00103938WA0000000431
B1603183754116N00103962WA0000000434
B1603243754113N00103990WA0000000434
B1603303754102N00104009WA0000000435
B1603363754094N00104034WA0000000437
B1603423754086N00104060WA0000000441
B1603483754079N00104085WA0000000444
B1603543754071N00104109WA0000000444
B1604003754062N00104123WA0000000446
B1604063754051N00104137WA0000000450
B1604123754040N00104145WA0000000456
B1604183754027N00104146WA0000000458
B1604243754015N00104144WA0000000463
B1604303754005N00104138WA0000000462
B1604323754001N00104138WA0000000461
B1605063753934N00104160WA0000000455
B1605123753925N00104157WA0000000443
B1605183753915N00104159WA0000000442
B1605243753906N00104160WA0000000442
B1605303753894N00104160WA0000000438
B1605313753892N00104160WA0000000437
B1608243754066N00103869WA0000000458
B1608303754057N00103881WA0000000434
B1608363754045N00103894WA0000000439
B1608423754032N00103904WA0000000435
B1608483754023N00103921WA0000000424
B1608543754038N00103959WA0000000415
B1609003754061N00104002WA0000000411
B1609063754076N00104041WA0000000413
B1609123754077N00104076WA0000000425
B1609183754068N00104096WA0000000429
B1609243754058N00104114WA0000000437
B1609303754046N00104129WA0000000427
B1609363754036N00104153WA0000000423
B1609423754033N00104190WA0000000423
B1609483754027N00104224WA0000000426
B1609543754019N00104252WA0000000429
B1609573754015N00104266WA0000000430
B1610303753961N00104394WA0000000454
B1610363753950N00104418WA0000000457
B1610423753942N00104434WA0000000455
B1610483753935N00104446WA0000000457
B1610543753929N00104431WA0000000456
B1611003753920N00104420WA0000000453
B1611063753907N00104413WA0000000449
B1611123753892N00104404WA0000000445
B1611183753879N00104397WA0000000446
B1611243753867N00104386WA0000000436
B1611303753853N00104385WA0000000432
B1613003753961N00104233WA0000000383
B1613063753947N00104220WA0000000402
B1613123753939N00104205WA0000000426
B1613183753931N00104193WA0000000431
B1613243753927N00104176WA0000000435
B1613303753922N00104154WA0000000491
B1613363753914N00104149WA0000000492
B1613423753904N00104143WA0000000493
B1613483753898N00104144WA0000000493
B1613543753906N00104173WA0000000491
B1614003753902N00104184WA0000000486
B1614033753898N00104176WA0000000484
B1615423753928N00104093WA0000000435
B1615483753921N00104069WA0000000463
B1615543753914N00104048WA0000000467
B1616003753903N00104040WA0000000471
B1616063753896N00104024WA0000000472
B1616123753894N00104003WA0000000470
B1616183753892N00103982WA0000000467
B1616243753884N00103967WA0000000462
B1616303753874N00103961WA0000000453
B1616363753871N00103944WA0000000448
B1616423753870N00103921WA0000000440
B1616483753876N00103896WA0000000433
B1616543753905N00103877WA0000000425
B1616573753922N00103866WA0000000421
B1617543754017N00104066WA0000000372
B1618003754003N00104059WA0000000372
B1618063753991N00104052WA0000000371
B1618123753977N00104038WA0000000368
B1618183753965N00104032WA0000000363
B1618243753954N00104032WA0000000360
B1618303753944N00104039WA0000000354
B1618363753934N00104047WA0000000349
B1618423753926N00104049WA0000000344
B1618483753917N00104053WA0000000339
B1618543753917N00104039WA0000000330
B1619003753932N00104016WA0000000323
B1619023753935N00104009WA0000000321
LXCG     VERSION:5.7
GAA23DE95E128F4B161A4158A18C5EADCB2697224E9F2D41BCF0B0B47DD46D25706B9D
G1C8948946A78CD5704149F28417FF23563BF7D1B5D8183305B18ADA6AE08CC99BC2
GBA30EABDFFCB2C8D3977356D5217441D260D0E9E0644A7556C0903F40E6B372850F
GE78A8ED4CB7891C2951486A21466DD914D40192B8A875F3C35C31E67339A2